sensor_id;sensor_type;location;lat;lon;timestamp;P1;durP1;ratioP1;P2;durP2;ratioP2
24961;SDS011;12992;50.884;13.668;2022-07-23T00:02:16;4.85;;;3.90;;
24961;SDS011;12992;50.884;13.668;2022-07-23T00:04:42;5.00;;;4.10;;
24961;SDS011;12992;50.884;13.668;2022-07-23T00:07:07;6.78;;;4.28;;
24961;SDS011;12992;50.884;13.668;2022-07-23T00:09:32;6.50;;;4.05;;
24961;SDS011;12992;50.884;13.668;2022-07-23T00:11:58;6.38;;;4.20;;
24961;SDS011;12992;50.884;13.668;2022-07-23T00:14:23;4.43;;;3.88;;
24961;SDS011;12992;50.884;13.668;2022-07-23T00:16:49;4.47;;;4.00;;
24961;SDS011;12992;50.884;13.668;2022-07-23T00:19:14;6.05;;;4.38;;
24961;SDS011;12992;50.884;13.668;2022-07-23T00:21:39;4.97;;;4.00;;
24961;SDS011;12992;50.884;13.668;2022-07-23T00:24:05;5.75;;;4.25;;
24961;SDS011;12992;50.884;13.668;2022-07-23T00:26:30;5.15;;;4.05;;
24961;SDS011;12992;50.884;13.668;2022-07-23T00:28:56;4.25;;;3.85;;
24961;SDS011;12992;50.884;13.668;2022-07-23T00:31:21;5.70;;;4.07;;
24961;SDS011;12992;50.884;13.668;2022-07-23T00:33:46;4.40;;;4.00;;
24961;SDS011;12992;50.884;13.668;2022-07-23T00:36:11;4.93;;;4.03;;
24961;SDS011;12992;50.884;13.668;2022-07-23T00:38:37;4.65;;;4.10;;
24961;SDS011;12992;50.884;13.668;2022-07-23T00:41:02;4.50;;;4.05;;
24961;SDS011;12992;50.884;13.668;2022-07-23T00:43:28;4.68;;;4.20;;
24961;SDS011;12992;50.884;13.668;2022-07-23T00:45:53;4.18;;;3.80;;
24961;SDS011;12992;50.884;13.668;2022-07-23T00:48:19;4.53;;;4.13;;
24961;SDS011;12992;50.884;13.668;2022-07-23T00:50:44;4.22;;;3.83;;
24961;SDS011;12992;50.884;13.668;2022-07-23T00:53:10;5.57;;;4.28;;
24961;SDS011;12992;50.884;13.668;2022-07-23T00:55:36;6.68;;;4.10;;
24961;SDS011;12992;50.884;13.668;2022-07-23T00:58:01;4.25;;;3.85;;
24961;SDS011;12992;50.884;13.668;2022-07-23T01:00:27;5.88;;;4.22;;
24961;SDS011;12992;50.884;13.668;2022-07-23T01:02:53;4.65;;;3.83;;
24961;SDS011;12992;50.884;13.668;2022-07-23T01:05:18;4.78;;;4.10;;
24961;SDS011;12992;50.884;13.668;2022-07-23T01:07:47;5.10;;;4.32;;
24961;SDS011;12992;50.884;13.668;2022-07-23T01:10:14;4.88;;;4.38;;
24961;SDS011;12992;50.884;13.668;2022-07-23T01:13:02;4.65;;;4.00;;
24961;SDS011;12992;50.884;13.668;2022-07-23T01:15:29;4.95;;;3.92;;
24961;SDS011;12992;50.884;13.668;2022-07-23T01:17:55;4.68;;;3.83;;
24961;SDS011;12992;50.884;13.668;2022-07-23T01:20:21;7.22;;;4.03;;
24961;SDS011;12992;50.884;13.668;2022-07-23T01:22:48;5.07;;;4.30;;
24961;SDS011;12992;50.884;13.668;2022-07-23T01:25:14;6.93;;;4.25;;
24961;SDS011;12992;50.884;13.668;2022-07-23T01:27:45;5.47;;;4.25;;
24961;SDS011;12992;50.884;13.668;2022-07-23T01:30:10;5.50;;;4.70;;
24961;SDS011;12992;50.884;13.668;2022-07-23T01:32:36;4.97;;;4.32;;
24961;SDS011;12992;50.884;13.668;2022-07-23T01:35:02;4.75;;;4.20;;
24961;SDS011;12992;50.884;13.668;2022-07-23T01:37:27;4.72;;;4.13;;
24961;SDS011;12992;50.884;13.668;2022-07-23T01:39:54;4.68;;;4.20;;
24961;SDS011;12992;50.884;13.668;2022-07-23T01:42:19;5.45;;;4.22;;
24961;SDS011;12992;50.884;13.668;2022-07-23T01:44:45;5.28;;;4.55;;
24961;SDS011;12992;50.884;13.668;2022-07-23T01:49:43;4.50;;;4.10;;
24961;SDS011;12992;50.884;13.668;2022-07-23T01:52:26;4.90;;;4.00;;
24961;SDS011;12992;50.884;13.668;2022-07-23T01:54:52;5.55;;;3.90;;
24961;SDS011;12992;50.884;13.668;2022-07-23T01:57:17;5.32;;;4.20;;
24961;SDS011;12992;50.884;13.668;2022-07-23T01:59:43;4.57;;;4.07;;
24961;SDS011;12992;50.884;13.668;2022-07-23T02:02:09;6.07;;;4.28;;
24961;SDS011;12992;50.884;13.668;2022-07-23T02:04:34;5.70;;;4.15;;
24961;SDS011;12992;50.884;13.668;2022-07-23T02:07:01;4.72;;;3.80;;
24961;SDS011;12992;50.884;13.668;2022-07-23T02:09:27;4.30;;;3.90;;
24961;SDS011;12992;50.884;13.668;2022-07-23T02:11:53;4.68;;;4.18;;
24961;SDS011;12992;50.884;13.668;2022-07-23T02:14:18;4.97;;;4.28;;
24961;SDS011;12992;50.884;13.668;2022-07-23T02:16:45;4.70;;;4.20;;
24961;SDS011;12992;50.884;13.668;2022-07-23T02:19:10;5.60;;;3.90;;
24961;SDS011;12992;50.884;13.668;2022-07-23T02:21:36;4.80;;;3.90;;
24961;SDS011;12992;50.884;13.668;2022-07-23T02:24:01;4.93;;;4.03;;
24961;SDS011;12992;50.884;13.668;2022-07-23T02:26:27;4.32;;;3.92;;
24961;SDS011;12992;50.884;13.668;2022-07-23T02:28:53;4.43;;;4.00;;
24961;SDS011;12992;50.884;13.668;2022-07-23T02:31:18;4.60;;;4.10;;
24961;SDS011;12992;50.884;13.668;2022-07-23T02:33:44;4.57;;;4.13;;
24961;SDS011;12992;50.884;13.668;2022-07-23T02:36:09;5.75;;;3.95;;
24961;SDS011;12992;50.884;13.668;2022-07-23T02:38:35;5.97;;;4.40;;
24961;SDS011;12992;50.884;13.668;2022-07-23T02:41:00;5.97;;;4.00;;
24961;SDS011;12992;50.884;13.668;2022-07-23T02:43:26;4.75;;;4.10;;
24961;SDS011;12992;50.884;13.668;2022-07-23T02:45:51;5.47;;;4.53;;
24961;SDS011;12992;50.884;13.668;2022-07-23T02:48:16;4.97;;;4.30;;
24961;SDS011;12992;50.884;13.668;2022-07-23T02:50:44;5.40;;;4.30;;
24961;SDS011;12992;50.884;13.668;2022-07-23T02:53:13;7.45;;;4.47;;
24961;SDS011;12992;50.884;13.668;2022-07-23T02:55:39;4.25;;;3.85;;
24961;SDS011;12992;50.884;13.668;2022-07-23T02:58:05;4.38;;;3.80;;
24961;SDS011;12992;50.884;13.668;2022-07-23T03:00:30;5.10;;;4.40;;
24961;SDS011;12992;50.884;13.668;2022-07-23T03:02:56;4.40;;;4.00;;
24961;SDS011;12992;50.884;13.668;2022-07-23T03:05:21;5.30;;;4.03;;
24961;SDS011;12992;50.884;13.668;2022-07-23T03:07:47;4.88;;;3.92;;
24961;SDS011;12992;50.884;13.668;2022-07-23T03:10:13;5.70;;;4.05;;
24961;SDS011;12992;50.884;13.668;2022-07-23T03:12:38;6.45;;;4.03;;
24961;SDS011;12992;50.884;13.668;2022-07-23T03:15:03;5.07;;;3.95;;
24961;SDS011;12992;50.884;13.668;2022-07-23T03:17:29;5.57;;;4.15;;
24961;SDS011;12992;50.884;13.668;2022-07-23T03:19:55;6.18;;;4.05;;
24961;SDS011;12992;50.884;13.668;2022-07-23T03:22:22;5.82;;;4.00;;
24961;SDS011;12992;50.884;13.668;2022-07-23T03:24:47;5.55;;;4.03;;
24961;SDS011;12992;50.884;13.668;2022-07-23T03:27:24;4.30;;;3.90;;
24961;SDS011;12992;50.884;13.668;2022-07-23T03:29:54;4.90;;;3.55;;
24961;SDS011;12992;50.884;13.668;2022-07-23T03:32:21;4.85;;;4.35;;
24961;SDS011;12992;50.884;13.668;2022-07-23T03:34:47;6.78;;;4.13;;
24961;SDS011;12992;50.884;13.668;2022-07-23T03:37:13;4.82;;;4.03;;
24961;SDS011;12992;50.884;13.668;2022-07-23T03:39:39;4.05;;;3.65;;
24961;SDS011;12992;50.884;13.668;2022-07-23T03:42:05;6.05;;;4.00;;
24961;SDS011;12992;50.884;13.668;2022-07-23T03:44:30;5.30;;;4.45;;
24961;SDS011;12992;50.884;13.668;2022-07-23T03:46:56;5.25;;;3.85;;
24961;SDS011;12992;50.884;13.668;2022-07-23T03:49:21;7.65;;;4.30;;
24961;SDS011;12992;50.884;13.668;2022-07-23T03:51:48;4.30;;;3.63;;
24961;SDS011;12992;50.884;13.668;2022-07-23T03:54:13;4.00;;;3.60;;
24961;SDS011;12992;50.884;13.668;2022-07-23T03:56:38;4.32;;;3.92;;
24961;SDS011;12992;50.884;13.668;2022-07-23T03:59:04;4.95;;;3.80;;
24961;SDS011;12992;50.884;13.668;2022-07-23T04:01:29;4.65;;;4.18;;
24961;SDS011;12992;50.884;13.668;2022-07-23T04:03:55;4.22;;;3.83;;
24961;SDS011;12992;50.884;13.668;2022-07-23T04:06:20;4.40;;;3.90;;
24961;SDS011;12992;50.884;13.668;2022-07-23T04:08:46;4.72;;;3.95;;
24961;SDS011;12992;50.884;13.668;2022-07-23T04:11:12;4.40;;;3.83;;
24961;SDS011;12992;50.884;13.668;2022-07-23T04:13:37;6.68;;;4.00;;
24961;SDS011;12992;50.884;13.668;2022-07-23T04:16:03;6.32;;;4.00;;
24961;SDS011;12992;50.884;13.668;2022-07-23T04:18:29;4.90;;;3.90;;
24961;SDS011;12992;50.884;13.668;2022-07-23T04:21:05;4.55;;;3.60;;
24961;SDS011;12992;50.884;13.668;2022-07-23T04:23:30;4.32;;;3.92;;
24961;SDS011;12992;50.884;13.668;2022-07-23T04:25:55;4.25;;;3.85;;
24961;SDS011;12992;50.884;13.668;2022-07-23T04:28:21;4.25;;;3.75;;
24961;SDS011;12992;50.884;13.668;2022-07-23T04:30:47;4.60;;;4.10;;
24961;SDS011;12992;50.884;13.668;2022-07-23T04:33:14;5.03;;;3.90;;
24961;SDS011;12992;50.884;13.668;2022-07-23T04:35:40;6.93;;;3.97;;
24961;SDS011;12992;50.884;13.668;2022-07-23T04:38:12;4.80;;;4.28;;
24961;SDS011;12992;50.884;13.668;2022-07-23T04:40:38;4.35;;;3.90;;
24961;SDS011;12992;50.884;13.668;2022-07-23T04:43:03;6.55;;;4.38;;
24961;SDS011;12992;50.884;13.668;2022-07-23T04:45:32;5.28;;;4.65;;
24961;SDS011;12992;50.884;13.668;2022-07-23T04:47:57;6.45;;;4.03;;
24961;SDS011;12992;50.884;13.668;2022-07-23T04:50:22;4.80;;;4.15;;
24961;SDS011;12992;50.884;13.668;2022-07-23T04:52:52;5.32;;;3.92;;
24961;SDS011;12992;50.884;13.668;2022-07-23T04:55:17;7.10;;;4.53;;
24961;SDS011;12992;50.884;13.668;2022-07-23T04:57:44;13.23;;;4.80;;
24961;SDS011;12992;50.884;13.668;2022-07-23T05:00:09;6.65;;;4.85;;
24961;SDS011;12992;50.884;13.668;2022-07-23T05:02:35;7.13;;;5.22;;
24961;SDS011;12992;50.884;13.668;2022-07-23T05:05:00;7.35;;;5.45;;
24961;SDS011;12992;50.884;13.668;2022-07-23T05:07:26;8.77;;;5.10;;
24961;SDS011;12992;50.884;13.668;2022-07-23T05:09:51;7.05;;;5.28;;
24961;SDS011;12992;50.884;13.668;2022-07-23T05:12:17;9.52;;;5.82;;
24961;SDS011;12992;50.884;13.668;2022-07-23T05:14:43;7.57;;;5.60;;
24961;SDS011;12992;50.884;13.668;2022-07-23T05:17:08;5.85;;;5.25;;
24961;SDS011;12992;50.884;13.668;2022-07-23T05:19:34;10.27;;;4.97;;
24961;SDS011;12992;50.884;13.668;2022-07-23T05:22:00;8.13;;;5.07;;
24961;SDS011;12992;50.884;13.668;2022-07-23T05:24:26;7.95;;;5.35;;
24961;SDS011;12992;50.884;13.668;2022-07-23T05:26:51;7.35;;;6.57;;
24961;SDS011;12992;50.884;13.668;2022-07-23T05:29:18;5.57;;;4.95;;
24961;SDS011;12992;50.884;13.668;2022-07-23T05:31:44;5.32;;;4.75;;
24961;SDS011;12992;50.884;13.668;2022-07-23T05:34:09;10.27;;;5.72;;
24961;SDS011;12992;50.884;13.668;2022-07-23T05:36:36;8.75;;;5.47;;
24961;SDS011;12992;50.884;13.668;2022-07-23T05:39:02;8.35;;;5.40;;
24961;SDS011;12992;50.884;13.668;2022-07-23T05:41:31;5.95;;;5.35;;
24961;SDS011;12992;50.884;13.668;2022-07-23T05:43:58;7.85;;;4.93;;
24961;SDS011;12992;50.884;13.668;2022-07-23T05:46:24;6.32;;;4.97;;
24961;SDS011;12992;50.884;13.668;2022-07-23T05:48:54;6.38;;;4.82;;
24961;SDS011;12992;50.884;13.668;2022-07-23T05:51:42;7.28;;;5.15;;
24961;SDS011;12992;50.884;13.668;2022-07-23T05:54:08;5.38;;;4.75;;
24961;SDS011;12992;50.884;13.668;2022-07-23T05:56:37;5.63;;;4.05;;
24961;SDS011;12992;50.884;13.668;2022-07-23T05:59:02;4.88;;;4.05;;
24961;SDS011;12992;50.884;13.668;2022-07-23T06:01:28;6.55;;;4.53;;
24961;SDS011;12992;50.884;13.668;2022-07-23T06:04:08;6.25;;;4.55;;
24961;SDS011;12992;50.884;13.668;2022-07-23T06:06:37;6.45;;;4.93;;
24961;SDS011;12992;50.884;13.668;2022-07-23T06:09:03;5.32;;;4.78;;
24961;SDS011;12992;50.884;13.668;2022-07-23T06:11:29;6.38;;;5.78;;
24961;SDS011;12992;50.884;13.668;2022-07-23T06:13:55;6.00;;;4.90;;
24961;SDS011;12992;50.884;13.668;2022-07-23T06:16:26;7.53;;;5.40;;
24961;SDS011;12992;50.884;13.668;2022-07-23T06:18:51;10.32;;;6.00;;
24961;SDS011;12992;50.884;13.668;2022-07-23T06:21:18;9.60;;;6.05;;
24961;SDS011;12992;50.884;13.668;2022-07-23T06:23:43;7.78;;;6.32;;
24961;SDS011;12992;50.884;13.668;2022-07-23T06:26:09;6.82;;;5.70;;
24961;SDS011;12992;50.884;13.668;2022-07-23T06:28:34;9.57;;;6.80;;
24961;SDS011;12992;50.884;13.668;2022-07-23T06:30:59;8.18;;;6.07;;
24961;SDS011;12992;50.884;13.668;2022-07-23T06:33:25;7.03;;;6.00;;
24961;SDS011;12992;50.884;13.668;2022-07-23T06:35:50;8.20;;;5.90;;
24961;SDS011;12992;50.884;13.668;2022-07-23T06:38:15;7.43;;;5.85;;
24961;SDS011;12992;50.884;13.668;2022-07-23T06:40:41;9.13;;;6.10;;
24961;SDS011;12992;50.884;13.668;2022-07-23T06:43:06;6.70;;;5.43;;
24961;SDS011;12992;50.884;13.668;2022-07-23T06:45:35;10.20;;;5.88;;
24961;SDS011;12992;50.884;13.668;2022-07-23T06:48:01;6.40;;;5.40;;
24961;SDS011;12992;50.884;13.668;2022-07-23T06:50:27;10.23;;;6.50;;
24961;SDS011;12992;50.884;13.668;2022-07-23T06:52:53;9.55;;;7.25;;
24961;SDS011;12992;50.884;13.668;2022-07-23T06:55:19;11.98;;;6.63;;
24961;SDS011;12992;50.884;13.668;2022-07-23T06:57:44;8.15;;;6.68;;
24961;SDS011;12992;50.884;13.668;2022-07-23T07:00:10;8.70;;;7.47;;
24961;SDS011;12992;50.884;13.668;2022-07-23T07:02:36;9.23;;;7.50;;
24961;SDS011;12992;50.884;13.668;2022-07-23T07:05:02;10.80;;;8.60;;
24961;SDS011;12992;50.884;13.668;2022-07-23T07:07:27;12.63;;;8.85;;
24961;SDS011;12992;50.884;13.668;2022-07-23T07:09:53;10.32;;;7.97;;
24961;SDS011;12992;50.884;13.668;2022-07-23T07:12:18;9.65;;;7.80;;
24961;SDS011;12992;50.884;13.668;2022-07-23T07:14:43;10.68;;;7.25;;
24961;SDS011;12992;50.884;13.668;2022-07-23T07:17:09;14.43;;;8.35;;
24961;SDS011;12992;50.884;13.668;2022-07-23T07:19:35;8.80;;;6.97;;
24961;SDS011;12992;50.884;13.668;2022-07-23T07:22:01;10.73;;;7.07;;
24961;SDS011;12992;50.884;13.668;2022-07-23T07:24:27;10.05;;;7.50;;
24961;SDS011;12992;50.884;13.668;2022-07-23T07:26:52;11.77;;;7.00;;
24961;SDS011;12992;50.884;13.668;2022-07-23T07:29:17;8.43;;;7.00;;
24961;SDS011;12992;50.884;13.668;2022-07-23T07:31:43;7.97;;;6.32;;
24961;SDS011;12992;50.884;13.668;2022-07-23T07:34:08;9.50;;;6.60;;
24961;SDS011;12992;50.884;13.668;2022-07-23T07:36:33;8.65;;;6.85;;
24961;SDS011;12992;50.884;13.668;2022-07-23T07:38:59;9.15;;;6.25;;
24961;SDS011;12992;50.884;13.668;2022-07-23T07:41:25;9.02;;;6.60;;
24961;SDS011;12992;50.884;13.668;2022-07-23T07:43:51;9.73;;;7.55;;
24961;SDS011;12992;50.884;13.668;2022-07-23T07:46:16;10.80;;;7.35;;
24961;SDS011;12992;50.884;13.668;2022-07-23T07:48:42;10.27;;;6.93;;
24961;SDS011;12992;50.884;13.668;2022-07-23T07:51:07;9.23;;;6.40;;
24961;SDS011;12992;50.884;13.668;2022-07-23T07:53:33;7.72;;;6.28;;
24961;SDS011;12992;50.884;13.668;2022-07-23T07:55:58;8.57;;;5.75;;
24961;SDS011;12992;50.884;13.668;2022-07-23T07:58:23;8.60;;;6.95;;
24961;SDS011;12992;50.884;13.668;2022-07-23T08:00:49;10.40;;;7.32;;
24961;SDS011;12992;50.884;13.668;2022-07-23T08:03:14;10.73;;;7.28;;
24961;SDS011;12992;50.884;13.668;2022-07-23T08:05:39;13.77;;;6.82;;
24961;SDS011;12992;50.884;13.668;2022-07-23T08:08:05;14.82;;;8.60;;
24961;SDS011;12992;50.884;13.668;2022-07-23T08:10:30;11.95;;;7.22;;
24961;SDS011;12992;50.884;13.668;2022-07-23T08:12:59;6.88;;;5.65;;
24961;SDS011;12992;50.884;13.668;2022-07-23T08:15:26;9.43;;;6.85;;
24961;SDS011;12992;50.884;13.668;2022-07-23T08:17:54;9.35;;;6.15;;
24961;SDS011;12992;50.884;13.668;2022-07-23T08:20:20;7.57;;;6.35;;
24961;SDS011;12992;50.884;13.668;2022-07-23T08:25:25;10.50;;;7.70;;
24961;SDS011;12992;50.884;13.668;2022-07-23T08:27:52;7.80;;;5.65;;
24961;SDS011;12992;50.884;13.668;2022-07-23T08:30:17;8.05;;;5.30;;
24961;SDS011;12992;50.884;13.668;2022-07-23T08:32:47;9.15;;;5.00;;
24961;SDS011;12992;50.884;13.668;2022-07-23T08:35:37;6.93;;;5.10;;
24961;SDS011;12992;50.884;13.668;2022-07-23T08:38:04;7.38;;;5.05;;
24961;SDS011;12992;50.884;13.668;2022-07-23T08:40:31;7.72;;;5.50;;
24961;SDS011;12992;50.884;13.668;2022-07-23T08:42:58;6.78;;;4.93;;
24961;SDS011;12992;50.884;13.668;2022-07-23T08:45:24;7.82;;;4.78;;
24961;SDS011;12992;50.884;13.668;2022-07-23T08:47:52;7.72;;;5.32;;
24961;SDS011;12992;50.884;13.668;2022-07-23T08:50:19;6.60;;;5.47;;
24961;SDS011;12992;50.884;13.668;2022-07-23T08:52:45;8.35;;;4.95;;
24961;SDS011;12992;50.884;13.668;2022-07-23T08:55:13;6.57;;;4.97;;
24961;SDS011;12992;50.884;13.668;2022-07-23T08:57:40;6.40;;;4.18;;
24961;SDS011;12992;50.884;13.668;2022-07-23T09:00:05;6.03;;;4.57;;
24961;SDS011;12992;50.884;13.668;2022-07-23T09:02:37;10.13;;;5.75;;
24961;SDS011;12992;50.884;13.668;2022-07-23T09:07:29;8.63;;;5.00;;
24961;SDS011;12992;50.884;13.668;2022-07-23T09:10:04;6.75;;;4.75;;
24961;SDS011;12992;50.884;13.668;2022-07-23T09:12:32;6.93;;;5.20;;
24961;SDS011;12992;50.884;13.668;2022-07-23T09:14:57;8.38;;;5.57;;
24961;SDS011;12992;50.884;13.668;2022-07-23T09:17:39;5.50;;;5.00;;
24961;SDS011;12992;50.884;13.668;2022-07-23T09:20:12;5.88;;;4.57;;
24961;SDS011;12992;50.884;13.668;2022-07-23T09:22:48;4.63;;;4.13;;
24961;SDS011;12992;50.884;13.668;2022-07-23T09:25:16;6.82;;;4.57;;
24961;SDS011;12992;50.884;13.668;2022-07-23T09:27:50;7.97;;;4.60;;
24961;SDS011;12992;50.884;13.668;2022-07-23T09:30:24;5.65;;;4.90;;
24961;SDS011;12992;50.884;13.668;2022-07-23T09:35:55;5.35;;;4.25;;
24961;SDS011;12992;50.884;13.668;2022-07-23T09:38:23;6.15;;;4.88;;
24961;SDS011;12992;50.884;13.668;2022-07-23T09:41:08;6.05;;;5.07;;
24961;SDS011;12992;50.884;13.668;2022-07-23T09:43:34;7.80;;;4.85;;
24961;SDS011;12992;50.884;13.668;2022-07-23T09:48:46;5.85;;;4.88;;
24961;SDS011;12992;50.884;13.668;2022-07-23T09:51:12;6.63;;;4.82;;
24961;SDS011;12992;50.884;13.668;2022-07-23T09:53:39;9.68;;;4.63;;
24961;SDS011;12992;50.884;13.668;2022-07-23T09:56:05;6.70;;;4.97;;
24961;SDS011;12992;50.884;13.668;2022-07-23T09:58:31;8.13;;;5.05;;
24961;SDS011;12992;50.884;13.668;2022-07-23T10:00:57;7.82;;;5.22;;
24961;SDS011;12992;50.884;13.668;2022-07-23T10:03:23;6.90;;;5.18;;
24961;SDS011;12992;50.884;13.668;2022-07-23T10:06:08;10.05;;;5.03;;
24961;SDS011;12992;50.884;13.668;2022-07-23T10:08:53;8.90;;;5.18;;
24961;SDS011;12992;50.884;13.668;2022-07-23T10:11:42;7.45;;;4.47;;
24961;SDS011;12992;50.884;13.668;2022-07-23T10:14:23;7.45;;;4.20;;
24961;SDS011;12992;50.884;13.668;2022-07-23T10:17:02;8.35;;;4.85;;
24961;SDS011;12992;50.884;13.668;2022-07-23T10:19:29;5.97;;;4.65;;
24961;SDS011;12992;50.884;13.668;2022-07-23T10:21:57;7.40;;;5.65;;
24961;SDS011;12992;50.884;13.668;2022-07-23T10:27:50;8.02;;;4.57;;
24961;SDS011;12992;50.884;13.668;2022-07-23T10:33:30;8.40;;;4.43;;
24961;SDS011;12992;50.884;13.668;2022-07-23T10:36:07;6.05;;;4.63;;
24961;SDS011;12992;50.884;13.668;2022-07-23T10:41:32;5.47;;;4.47;;
24961;SDS011;12992;50.884;13.668;2022-07-23T10:44:15;7.47;;;4.80;;
24961;SDS011;12992;50.884;13.668;2022-07-23T10:46:58;11.48;;;4.80;;
24961;SDS011;12992;50.884;13.668;2022-07-23T10:49:37;8.85;;;4.60;;
24961;SDS011;12992;50.884;13.668;2022-07-23T10:52:22;6.03;;;4.80;;
24961;SDS011;12992;50.884;13.668;2022-07-23T10:54:56;8.63;;;4.45;;
24961;SDS011;12992;50.884;13.668;2022-07-23T10:57:48;8.93;;;4.63;;
24961;SDS011;12992;50.884;13.668;2022-07-23T11:00:15;6.35;;;4.15;;
24961;SDS011;12992;50.884;13.668;2022-07-23T11:02:45;7.18;;;4.28;;
24961;SDS011;12992;50.884;13.668;2022-07-23T11:05:57;6.50;;;4.50;;
24961;SDS011;12992;50.884;13.668;2022-07-23T11:08:17;8.00;;;3.97;;
24961;SDS011;12992;50.884;13.668;2022-07-23T11:31:53;5.97;;;4.78;;
24961;SDS011;12992;50.884;13.668;2022-07-23T11:34:34;5.45;;;4.30;;
24961;SDS011;12992;50.884;13.668;2022-07-23T11:37:04;4.22;;;3.83;;
24961;SDS011;12992;50.884;13.668;2022-07-23T11:39:32;5.05;;;4.55;;
24961;SDS011;12992;50.884;13.668;2022-07-23T11:41:58;6.32;;;4.45;;
24961;SDS011;12992;50.884;13.668;2022-07-23T11:44:28;7.10;;;4.70;;
24961;SDS011;12992;50.884;13.668;2022-07-23T11:46:58;4.97;;;4.47;;
24961;SDS011;12992;50.884;13.668;2022-07-23T11:49:25;5.15;;;4.63;;
24961;SDS011;12992;50.884;13.668;2022-07-23T11:57:38;6.68;;;5.13;;
24961;SDS011;12992;50.884;13.668;2022-07-23T12:02:38;8.57;;;4.80;;
24961;SDS011;12992;50.884;13.668;2022-07-23T12:05:19;7.50;;;5.00;;
24961;SDS011;12992;50.884;13.668;2022-07-23T12:07:46;10.45;;;5.15;;
24961;SDS011;12992;50.884;13.668;2022-07-23T12:10:19;5.57;;;4.55;;
24961;SDS011;12992;50.884;13.668;2022-07-23T12:12:48;7.97;;;5.18;;
24961;SDS011;12992;50.884;13.668;2022-07-23T12:15:15;9.40;;;5.38;;
24961;SDS011;12992;50.884;13.668;2022-07-23T12:17:44;7.00;;;5.13;;
24961;SDS011;12992;50.884;13.668;2022-07-23T12:20:14;6.55;;;4.55;;
24961;SDS011;12992;50.884;13.668;2022-07-23T12:22:42;7.70;;;4.80;;
24961;SDS011;12992;50.884;13.668;2022-07-23T12:25:11;11.55;;;4.90;;
24961;SDS011;12992;50.884;13.668;2022-07-23T12:27:38;6.35;;;4.90;;
24961;SDS011;12992;50.884;13.668;2022-07-23T12:30:16;7.75;;;4.88;;
24961;SDS011;12992;50.884;13.668;2022-07-23T12:32:45;9.38;;;4.45;;
24961;SDS011;12992;50.884;13.668;2022-07-23T12:35:12;8.48;;;4.68;;
24961;SDS011;12992;50.884;13.668;2022-07-23T12:37:39;14.82;;;5.20;;
24961;SDS011;12992;50.884;13.668;2022-07-23T12:40:19;8.30;;;5.38;;
24961;SDS011;12992;50.884;13.668;2022-07-23T12:42:47;6.95;;;4.47;;
24961;SDS011;12992;50.884;13.668;2022-07-23T12:45:14;7.90;;;5.35;;
24961;SDS011;12992;50.884;13.668;2022-07-23T12:47:56;8.93;;;5.22;;
24961;SDS011;12992;50.884;13.668;2022-07-23T12:53:17;9.55;;;4.90;;
24961;SDS011;12992;50.884;13.668;2022-07-23T12:55:44;9.25;;;4.97;;
24961;SDS011;12992;50.884;13.668;2022-07-23T12:58:12;10.75;;;5.70;;
24961;SDS011;12992;50.884;13.668;2022-07-23T13:00:57;17.08;;;5.63;;
24961;SDS011;12992;50.884;13.668;2022-07-23T13:03:39;10.32;;;5.93;;
24961;SDS011;12992;50.884;13.668;2022-07-23T13:06:09;16.17;;;6.40;;
24961;SDS011;12992;50.884;13.668;2022-07-23T13:08:36;11.27;;;6.10;;
24961;SDS011;12992;50.884;13.668;2022-07-23T13:11:04;7.97;;;6.00;;
24961;SDS011;12992;50.884;13.668;2022-07-23T13:13:30;8.25;;;6.22;;
24961;SDS011;12992;50.884;13.668;2022-07-23T13:15:57;8.82;;;5.75;;
24961;SDS011;12992;50.884;13.668;2022-07-23T13:18:23;6.35;;;4.85;;
24961;SDS011;12992;50.884;13.668;2022-07-23T13:20:49;8.07;;;5.43;;
24961;SDS011;12992;50.884;13.668;2022-07-23T13:23:15;6.88;;;5.90;;
24961;SDS011;12992;50.884;13.668;2022-07-23T13:25:41;7.10;;;5.15;;
24961;SDS011;12992;50.884;13.668;2022-07-23T13:28:06;10.07;;;5.70;;
24961;SDS011;12992;50.884;13.668;2022-07-23T13:30:32;9.32;;;6.50;;
24961;SDS011;12992;50.884;13.668;2022-07-23T13:32:57;7.65;;;6.15;;
24961;SDS011;12992;50.884;13.668;2022-07-23T13:35:23;8.38;;;5.85;;
24961;SDS011;12992;50.884;13.668;2022-07-23T13:37:48;8.65;;;5.95;;
24961;SDS011;12992;50.884;13.668;2022-07-23T13:40:13;7.95;;;5.55;;
24961;SDS011;12992;50.884;13.668;2022-07-23T13:42:39;10.25;;;6.57;;
24961;SDS011;12992;50.884;13.668;2022-07-23T13:45:05;8.45;;;5.97;;
24961;SDS011;12992;50.884;13.668;2022-07-23T13:47:31;7.88;;;5.90;;
24961;SDS011;12992;50.884;13.668;2022-07-23T13:49:56;7.93;;;6.32;;
24961;SDS011;12992;50.884;13.668;2022-07-23T13:52:22;7.50;;;5.65;;
24961;SDS011;12992;50.884;13.668;2022-07-23T13:54:47;8.95;;;6.38;;
24961;SDS011;12992;50.884;13.668;2022-07-23T13:57:13;8.65;;;6.30;;
24961;SDS011;12992;50.884;13.668;2022-07-23T13:59:38;10.45;;;6.32;;
24961;SDS011;12992;50.884;13.668;2022-07-23T14:02:04;8.43;;;6.30;;
24961;SDS011;12992;50.884;13.668;2022-07-23T14:04:29;9.88;;;7.13;;
24961;SDS011;12992;50.884;13.668;2022-07-23T14:06:55;10.90;;;6.57;;
24961;SDS011;12992;50.884;13.668;2022-07-23T14:09:21;8.18;;;6.72;;
24961;SDS011;12992;50.884;13.668;2022-07-23T14:11:47;8.65;;;6.18;;
24961;SDS011;12992;50.884;13.668;2022-07-23T14:14:12;10.07;;;6.38;;
24961;SDS011;12992;50.884;13.668;2022-07-23T14:16:38;10.00;;;6.68;;
24961;SDS011;12992;50.884;13.668;2022-07-23T14:19:03;10.10;;;6.88;;
24961;SDS011;12992;50.884;13.668;2022-07-23T14:21:28;9.15;;;6.50;;
24961;SDS011;12992;50.884;13.668;2022-07-23T14:23:54;9.60;;;6.72;;
24961;SDS011;12992;50.884;13.668;2022-07-23T14:26:20;8.35;;;7.07;;
24961;SDS011;12992;50.884;13.668;2022-07-23T14:28:45;8.95;;;6.93;;
24961;SDS011;12992;50.884;13.668;2022-07-23T14:31:10;9.70;;;6.88;;
24961;SDS011;12992;50.884;13.668;2022-07-23T14:33:36;6.85;;;6.03;;
24961;SDS011;12992;50.884;13.668;2022-07-23T14:36:01;7.93;;;6.63;;
24961;SDS011;12992;50.884;13.668;2022-07-23T14:38:27;9.23;;;7.10;;
24961;SDS011;12992;50.884;13.668;2022-07-23T14:40:52;12.23;;;7.05;;
24961;SDS011;12992;50.884;13.668;2022-07-23T14:43:17;10.45;;;6.15;;
24961;SDS011;12992;50.884;13.668;2022-07-23T14:45:43;9.07;;;7.00;;
24961;SDS011;12992;50.884;13.668;2022-07-23T14:48:08;8.18;;;6.53;;
24961;SDS011;12992;50.884;13.668;2022-07-23T14:50:33;10.35;;;6.57;;
24961;SDS011;12992;50.884;13.668;2022-07-23T14:52:59;9.48;;;6.60;;
24961;SDS011;12992;50.884;13.668;2022-07-23T14:55:24;10.32;;;6.57;;
24961;SDS011;12992;50.884;13.668;2022-07-23T14:57:49;8.73;;;6.43;;
24961;SDS011;12992;50.884;13.668;2022-07-23T15:00:15;8.93;;;7.20;;
24961;SDS011;12992;50.884;13.668;2022-07-23T15:02:41;7.93;;;6.55;;
24961;SDS011;12992;50.884;13.668;2022-07-23T15:05:06;6.80;;;6.10;;
24961;SDS011;12992;50.884;13.668;2022-07-23T15:07:32;8.60;;;6.57;;
24961;SDS011;12992;50.884;13.668;2022-07-23T15:09:57;11.18;;;6.35;;
24961;SDS011;12992;50.884;13.668;2022-07-23T15:12:23;8.98;;;6.28;;
24961;SDS011;12992;50.884;13.668;2022-07-23T15:14:48;8.15;;;6.25;;
24961;SDS011;12992;50.884;13.668;2022-07-23T15:17:14;8.88;;;6.35;;
24961;SDS011;12992;50.884;13.668;2022-07-23T15:19:39;10.32;;;6.40;;
24961;SDS011;12992;50.884;13.668;2022-07-23T15:22:04;6.30;;;5.70;;
24961;SDS011;12992;50.884;13.668;2022-07-23T15:24:30;9.88;;;6.72;;
24961;SDS011;12992;50.884;13.668;2022-07-23T15:26:56;6.72;;;6.03;;
24961;SDS011;12992;50.884;13.668;2022-07-23T15:29:22;9.07;;;6.40;;
24961;SDS011;12992;50.884;13.668;2022-07-23T15:31:47;7.32;;;6.05;;